| time (UTC) | temp F | wind direction | speed MPH | gust MPH | rain 1hr in | rain 24hr in | rain mn in | humidity % | barometer mb |
| 20260509193231 | 71 | 67 | 1.0 | 4.0 | 0.00 | 0.00 | 0.00 | 18 | 1025.0 |
| 20260509192230 | 70 | 91 | 1.0 | 5.0 | 0.00 | 0.00 | 0.00 | 18 | 1025.1 |
| 20260509191233 | 70 | 67 | 2.0 | 3.0 | 0.00 | 0.00 | 0.00 | 17 | 1025.4 |
| 20260509190232 | 70 | 67 | 1.0 | 3.0 | 0.00 | 0.00 | 0.00 | 18 | 1025.4 |
| 20260509185232 | 72 | 45 | 3.0 | 4.0 | 0.00 | 0.00 | 0.00 | 17 | 1025.4 |
| 20260509183331 | 72 | 90 | 1.0 | 4.0 | 0.00 | 0.00 | 0.00 | 18 | 1025.7 |
| 20260509182330 | 71 | 90 | 3.0 | 5.0 | 0.00 | 0.00 | 0.00 | 18 | 1025.8 |
| 20260509181331 | 70 | 90 | 1.0 | 3.0 | 0.00 | 0.00 | 0.00 | 19 | 1025.4 |
| 20260509180330 | 70 | 90 | 1.0 | 3.0 | 0.00 | 0.00 | 0.00 | 19 | 1025.7 |
| 20260509175333 | 70 | 112 | 1.0 | 3.0 | 0.00 | 0.00 | 0.00 | 19 | 1026.0 |
| 20260509174330 | 70 | 90 | 4.0 | 6.0 | 0.00 | 0.00 | 0.00 | 19 | 1025.8 |
| 20260509173332 | 70 | 90 | 1.0 | 3.0 | 0.00 | 0.00 | 0.00 | 20 | 1025.7 |
| 20260509172330 | 69 | 90 | 0.0 | 2.0 | 0.00 | 0.00 | 0.00 | 21 | 1025.9 |
| 20260509171331 | 69 | 90 | 0.0 | 1.0 | 0.00 | 0.00 | 0.00 | 21 | 1025.7 |
| 20260509170429 | 69 | 90 | 1.0 | 4.0 | 0.00 | 0.00 | 0.00 | 19 | 1025.9 |
| 20260509170329 | 69 | 90 | 1.0 | 5.0 | 0.00 | 0.00 | 0.00 | 19 | 1025.9 |
| 20260509165333 | 69 | 112 | 3.0 | 5.0 | 0.00 | 0.00 | 0.00 | 20 | 1026.0 |
| 20260509164429 | 68 | 112 | 1.0 | 4.0 | 0.00 | 0.00 | 0.00 | 20 | 1025.8 |
| 20260509163432 | 68 | 10 | 2.0 | 4.0 | 0.00 | 0.00 | 0.00 | 20 | 1025.6 |
| 20260509162530 | 68 | 90 | 2.0 | 3.0 | 0.00 | 0.00 | 0.00 | 21 | 1025.7 |
| 20260509161629 | 67 | 90 | 2.0 | 4.0 | 0.00 | 0.00 | 0.00 | 21 | 1025.7 |
| 20260509160632 | 66 | 90 | 2.0 | 5.0 | 0.00 | 0.00 | 0.00 | 20 | 1025.7 |
| 20260509155630 | 67 | 90 | 3.0 | 6.0 | 0.00 | 0.00 | 0.00 | 20 | 1025.8 |
| 20260509154729 | 67 | 90 | 1.0 | 4.0 | 0.00 | 0.00 | 0.00 | 21 | 1025.7 |
| 20260509153732 | 67 | 90 | 1.0 | 2.0 | 0.00 | 0.00 | 0.00 | 21 | 1025.6 |
| 20260509152729 | 67 | 90 | 1.0 | 2.0 | 0.00 | 0.00 | 0.00 | 21 | 1025.7 |
| 20260509151734 | 66 | 90 | 1.0 | 2.0 | 0.00 | 0.00 | 0.00 | 20 | 1025.6 |
| 20260509150730 | 65 | 90 | 0.0 | 2.0 | 0.00 | 0.00 | 0.00 | 22 | 1025.7 |
| 20260509144829 | 64 | 90 | 0.0 | 3.0 | 0.00 | 0.00 | 0.00 | 22 | 1025.5 |
| 20260509143832 | 62 | 90 | 0.0 | 1.0 | 0.00 | 0.00 | 0.00 | 24 | 1025.7 |
| 20260509142832 | 60 | 90 | 0.0 | 0.0 | 0.00 | 0.00 | 0.00 | 25 | 1025.9 |
| 20260509141931 | 59 | 90 | 0.0 | 0.0 | 0.00 | 0.00 | 0.00 | 26 | 1025.8 |
| 20260509140930 | 57 | 90 | 0.0 | 0.0 | 0.00 | 0.00 | 0.00 | 29 | 1025.7 |
| 20260509135931 | 55 | 90 | 0.0 | 0.0 | 0.00 | 0.00 | 0.00 | 30 | 1025.6 |
| 20260509134931 | 54 | 90 | 0.0 | 1.0 | 0.00 | 0.00 | 0.00 | 28 | 1025.6 |
| 20260509134031 | 53 | 90 | 1.0 | 2.0 | 0.00 | 0.00 | 0.00 | 29 | 1025.4 |
| 20260509133033 | 52 | 90 | 1.0 | 2.0 | 0.00 | 0.00 | 0.00 | 30 | 1025.4 |
| 20260509132033 | 52 | 90 | 1.0 | 3.0 | 0.00 | 0.00 | 0.00 | 30 | 1025.1 |
| 20260509131131 | 52 | 90 | 0.0 | 0.0 | 0.00 | 0.00 | 0.00 | 29 | 1025.1 |
| 20260509130133 | 53 | 90 | 0.0 | 1.0 | 0.00 | 0.00 | 0.00 | 28 | 1024.8 |
| 20260509124329 | 53 | 90 | 0.0 | 1.0 | 0.00 | 0.00 | 0.00 | 27 | 1024.5 |
| 20260509123330 | 53 | 90 | 0.0 | 2.0 | 0.00 | 0.00 | 0.00 | 28 | 1024.4 |
| 20260509122330 | 51 | 90 | 0.0 | 1.0 | 0.00 | 0.00 | 0.00 | 29 | 1024.2 |
| 20260509121329 | 50 | 90 | 1.0 | 2.0 | 0.00 | 0.00 | 0.00 | 29 | 1023.8 |
| 20260509120332 | 50 | 90 | 0.0 | 1.0 | 0.00 | 0.00 | 0.00 | 28 | 1023.6 |
| 20260509115331 | 49 | 90 | 0.0 | 0.0 | 0.00 | 0.00 | 0.00 | 30 | 1023.5 |
| 20260509114348 | 50 | 90 | 0.0 | 0.0 | 0.00 | 0.00 | 0.00 | 30 | 1023.1 |
| 20260509113431 | 49 | 90 | 0.0 | 0.0 | 0.00 | 0.00 | 0.00 | 32 | 1023.3 |
| 20260509111432 | 48 | 90 | 1.0 | 2.0 | 0.00 | 0.00 | 0.00 | 34 | 1023.4 |
| 20260509110430 | 48 | 90 | 1.0 | 3.0 | 0.00 | 0.00 | 0.00 | 37 | 1023.3 |
| 20260509105429 | 48 | 90 | 0.0 | 0.0 | 0.00 | 0.00 | 0.00 | 38 | 1023.4 |
| 20260509104430 | 48 | 90 | 0.0 | 2.0 | 0.00 | 0.00 | 0.00 | 38 | 1023.4 |
| 20260509103430 | 48 | 90 | 0.0 | 0.0 | 0.00 | 0.00 | 0.00 | 38 | 1023.6 |
| 20260509101432 | 48 | 90 | 1.0 | 3.0 | 0.00 | 0.00 | 0.00 | 38 | 1023.6 |
| 20260509100530 | 48 | 90 | 2.0 | 3.0 | 0.00 | 0.00 | 0.00 | 37 | 1023.8 |
| 20260509095531 | 47 | 90 | 1.0 | 2.0 | 0.00 | 0.00 | 0.00 | 39 | 1023.8 |
| 20260509094530 | 47 | 90 | 0.0 | 2.0 | 0.00 | 0.00 | 0.00 | 38 | 1023.8 |
| 20260509093531 | 48 | 90 | 2.0 | 3.0 | 0.00 | 0.00 | 0.00 | 38 | 1023.7 |
| 20260509092531 | 47 | 90 | 2.0 | 2.0 | 0.00 | 0.00 | 0.00 | 38 | 1023.8 |
| 20260509091629 | 47 | 90 | 2.0 | 5.0 | 0.00 | 0.00 | 0.00 | 39 | 1023.7 |
| 20260509090630 | 46 | 90 | 1.0 | 3.0 | 0.00 | 0.00 | 0.00 | 39 | 1023.6 |
| 20260509085632 | 46 | 90 | 0.0 | 2.0 | 0.00 | 0.00 | 0.00 | 38 | 1023.7 |
| 20260509084629 | 46 | 90 | 0.0 | 1.0 | 0.00 | 0.00 | 0.00 | 38 | 1023.7 |
| 20260509083631 | 46 | 90 | 0.0 | 0.0 | 0.00 | 0.00 | 0.00 | 37 | 1023.7 |
| 20260509081632 | 47 | 90 | 1.0 | 3.0 | 0.00 | 0.00 | 0.00 | 38 | 1023.6 |
| 20260509075731 | 49 | 90 | 0.0 | 0.0 | 0.00 | 0.00 | 0.00 | 35 | 1023.8 |
| 20260509074747 | 49 | 90 | 0.0 | 0.0 | 0.00 | 0.00 | 0.00 | 36 | 1023.8 |
| 20260509073830 | 49 | 90 | 0.0 | 0.0 | 0.00 | 0.00 | 0.00 | 36 | 1023.8 |
| 20260509072830 | 48 | 90 | 1.0 | 1.0 | 0.00 | 0.00 | 0.00 | 36 | 1024.0 |
| 20260509071831 | 48 | 90 | 0.0 | 0.0 | 0.00 | 0.00 | 0.00 | 36 | 1024.2 |
| 20260509070832 | 47 | 90 | 0.0 | 0.0 | 0.00 | 0.00 | 0.00 | 38 | 1024.2 |
| 20260509065832 | 46 | 90 | 0.0 | 0.0 | 0.00 | 0.00 | 0.00 | 39 | 1024.0 |
| 20260509064830 | 45 | 90 | 0.0 | 0.0 | 0.00 | 0.00 | 0.00 | 38 | 1024.2 |
| 20260509063831 | 46 | 90 | 0.0 | 0.0 | 0.00 | 0.00 | 0.00 | 38 | 1024.2 |
| 20260509062831 | 46 | 90 | 0.0 | 0.0 | 0.00 | 0.00 | 0.00 | 38 | 1024.2 |
| 20260509062729 | 46 | 90 | 0.0 | 0.0 | 0.00 | 0.00 | 0.00 | 38 | 1024.2 |
| 20260509061733 | 46 | 90 | 0.0 | 0.0 | 0.00 | 0.00 | 0.00 | 38 | 1024.3 |
| 20260509060829 | 46 | 90 | 0.0 | 0.0 | 0.00 | 0.00 | 0.00 | 37 | 1024.2 |
| 20260509055840 | 46 | 90 | 0.0 | 0.0 | 0.00 | 0.00 | 0.00 | 36 | 1024.2 |
| 20260509054841 | 47 | 90 | 0.0 | 0.0 | 0.00 | 0.00 | 0.00 | 35 | 1024.3 |
| 20260509053841 | 48 | 90 | 0.0 | 0.0 | 0.00 | 0.00 | 0.00 | 34 | 1024.4 |
| 20260509052840 | 48 | 90 | 0.0 | 0.0 | 0.00 | 0.00 | 0.00 | 35 | 1024.4 |
| 20260509051839 | 48 | 90 | 0.0 | 0.0 | 0.00 | 0.00 | 0.00 | 34 | 1024.5 |
| 20260509050856 | 49 | 90 | 0.0 | 0.0 | 0.00 | 0.00 | 0.00 | 33 | 1024.6 |
| 20260509045841 | 49 | 90 | 0.0 | 0.0 | 0.00 | 0.00 | 0.00 | 33 | 1024.5 |
| 20260509044938 | 50 | 90 | 0.0 | 1.0 | 0.00 | 0.00 | 0.00 | 32 | 1024.6 |
| 20260509043943 | 50 | 90 | 0.0 | 0.0 | 0.00 | 0.00 | 0.00 | 31 | 1024.7 |
| 20260509042939 | 51 | 90 | 0.0 | 0.0 | 0.00 | 0.00 | 0.00 | 31 | 1024.5 |
| 20260509041941 | 52 | 90 | 1.0 | 2.0 | 0.00 | 0.00 | 0.00 | 31 | 1024.5 |
| 20260509040940 | 52 | 90 | 2.0 | 2.0 | 0.00 | 0.00 | 0.00 | 29 | 1024.7 |
| 20260509035942 | 53 | 90 | 1.0 | 2.0 | 0.00 | 0.00 | 0.00 | 29 | 1024.7 |
| 20260509034955 | 53 | 90 | 1.0 | 1.0 | 0.00 | 0.00 | 0.00 | 29 | 1024.5 |
| 20260509034042 | 53 | 90 | 0.0 | 1.0 | 0.00 | 0.00 | 0.00 | 30 | 1024.5 |
| 20260509033039 | 53 | 90 | 0.0 | 0.0 | 0.00 | 0.00 | 0.00 | 29 | 1024.5 |
| 20260509032040 | 54 | 90 | 0.0 | 2.0 | 0.00 | 0.00 | 0.00 | 28 | 1024.5 |
| 20260509030139 | 58 | 90 | 0.0 | 0.0 | 0.00 | 0.00 | 0.00 | 24 | 1024.3 |
| 20260509025142 | 60 | 90 | 0.0 | 1.0 | 0.00 | 0.00 | 0.00 | 25 | 1024.1 |
| 20260509024141 | 60 | 90 | 1.0 | 3.0 | 0.00 | 0.00 | 0.00 | 25 | 1024.0 |
| 20260509022238 | 61 | 90 | 0.0 | 1.0 | 0.00 | 0.00 | 0.00 | 23 | 1023.8 |
| 20260509021338 | 62 | 90 | 0.0 | 0.0 | 0.00 | 0.00 | 0.00 | 23 | 1023.7 |
| 20260509020339 | 63 | 90 | 0.0 | 1.0 | 0.00 | 0.00 | 0.00 | 22 | 1023.7 |
| 20260509015339 | 64 | 90 | 1.0 | 2.0 | 0.00 | 0.00 | 0.00 | 21 | 1023.4 |
| 20260509014438 | 64 | 90 | 1.0 | 5.0 | 0.00 | 0.00 | 0.00 | 21 | 1023.6 |
| 20260509013456 | 65 | 90 | 0.0 | 2.0 | 0.00 | 0.00 | 0.00 | 20 | 1023.6 |
| 20260509012539 | 66 | 90 | 0.0 | 1.0 | 0.00 | 0.00 | 0.00 | 20 | 1023.5 |
| 20260509011540 | 67 | 67 | 2.0 | 3.0 | 0.00 | 0.00 | 0.00 | 19 | 1023.3 |
| 20260509005640 | 69 | 67 | 2.0 | 4.0 | 0.00 | 0.00 | 0.00 | 18 | 1023.1 |
| 20260509005542 | 69 | 67 | 0.0 | 2.0 | 0.00 | 0.00 | 0.00 | 19 | 1023.1 |
| 20260509004541 | 68 | 67 | 2.0 | 5.0 | 0.00 | 0.00 | 0.00 | 17 | 1023.2 |
| 20260509003541 | 69 | 67 | 0.0 | 2.0 | 0.00 | 0.00 | 0.00 | 17 | 1023.4 |
| 20260509002638 | 69 | 67 | 1.0 | 2.0 | 0.00 | 0.00 | 0.00 | 17 | 1023.2 |
| 20260509001641 | 71 | 67 | 2.0 | 4.0 | 0.00 | 0.00 | 0.00 | 16 | 1023.3 |
| 20260508235641 | 71 | 90 | 2.0 | 4.0 | 0.00 | 0.00 | 0.00 | 17 | 1023.3 |
| 20260508233639 | 71 | 90 | 2.0 | 4.0 | 0.00 | 0.00 | 0.00 | 16 | 1023.1 |
| 20260508232640 | 72 | 112 | 1.0 | 3.0 | 0.00 | 0.00 | 0.00 | 17 | 1023.1 |
| 20260508231638 | 73 | 90 | 0.0 | 2.0 | 0.00 | 0.00 | 0.00 | 17 | 1023.0 |
| 20260508225638 | 71 | 90 | 1.0 | 3.0 | 0.00 | 0.00 | 0.00 | 17 | 1022.9 |
| 20260508224738 | 73 | 134 | 2.0 | 6.0 | 0.00 | 0.00 | 0.00 | 17 | 1023.1 |
| 20260508223740 | 72 | 90 | 2.0 | 4.0 | 0.00 | 0.00 | 0.00 | 18 | 1023.1 |
| 20260508222740 | 71 | 90 | 1.0 | 5.0 | 0.00 | 0.00 | 0.00 | 17 | 1023.1 |
| 20260508221739 | 73 | 90 | 0.0 | 2.0 | 0.00 | 0.00 | 0.00 | 18 | 1023.1 |
| 20260508220740 | 72 | 90 | 1.0 | 4.0 | 0.00 | 0.00 | 0.00 | 19 | 1023.4 |
| 20260508213838 | 70 | 90 | 1.0 | 3.0 | 0.00 | 0.00 | 0.00 | 20 | 1023.6 |
| 20260508212843 | 70 | 206 | 2.0 | 6.0 | 0.00 | 0.00 | 0.00 | 19 | 1023.6 |
| 20260508211841 | 69 | 90 | 2.0 | 4.0 | 0.00 | 0.00 | 0.00 | 19 | 1023.8 |
| 20260508205840 | 71 | 157 | 0.0 | 2.0 | 0.00 | 0.00 | 0.00 | 19 | 1023.9 |
| 20260508204939 | 71 | 98 | 2.0 | 5.0 | 0.00 | 0.00 | 0.00 | 18 | 1023.9 |
| 20260508203940 | 71 | 90 | 2.0 | 4.0 | 0.00 | 0.00 | 0.00 | 19 | 1024.0 |
| 20260508202940 | 71 | 90 | 2.0 | 7.0 | 0.00 | 0.00 | 0.00 | 19 | 1024.2 |
| 20260508201939 | 71 | 67 | 2.0 | 3.0 | 0.00 | 0.00 | 0.00 | 19 | 1024.3 |
| 20260508200941 | 70 | 67 | 1.0 | 4.0 | 0.00 | 0.00 | 0.00 | 20 | 1024.4 |
| 20260508200038 | 70 | 67 | 2.0 | 6.0 | 0.00 | 0.00 | 0.00 | 19 | 1024.5 |
| 20260508195042 | 70 | 67 | 2.0 | 6.0 | 0.00 | 0.00 | 0.00 | 19 | 1024.4 |
| 20260508194138 | 70 | 67 | 4.0 | 7.0 | 0.00 | 0.00 | 0.00 | 20 | 1024.1 |